BZN26 KTUS-KABQ
Flight info
| Callsign | BZN26 |
|---|---|
| Flight time | 0h 46m |
| Altitude | 37000 |
| Route | WLDKT4 SSO J104 TMACK/N0457F380 KALSE BRRTO1 |
| Aircraft | B738/M-SDE2E3FGHIRWXY/LB1 |
Departure
| Time | 2026-04-24 01:45 |
|---|---|
| Airport | Tucson International Airport (KTUS) |
Arrival
| Time | 2026-04-24 02:32 |
|---|---|
| Airport | Albuquerque International Sunport (KABQ) |
| Time | Latitude | Longitude | Altitude | Speed | Heading |
|---|---|---|---|---|---|
| 2026-04-24 01:13 | 32.11855 | -110.93742 | 2614 ft | 0 kts | 63° |
| 2026-04-24 01:16 | 32.11855 | -110.93743 | 2614 ft | 0 kts | 63° |
| 2026-04-24 01:27 | 32.11854 | -110.93743 | 2614 ft | 0 kts | 63° |
| 2026-04-24 01:31 | 32.11854 | -110.93744 | 2614 ft | 0 kts | 63° |
| 2026-04-24 01:34 | 32.11852 | -110.93748 | 2614 ft | 2 kts | 63° |
| 2026-04-24 01:34 | 32.11845 | -110.93765 | 2614 ft | 2 kts | 63° |
| 2026-04-24 01:34 | 32.11838 | -110.93781 | 2614 ft | 0 kts | 62° |
| 2026-04-24 01:35 | 32.11839 | -110.93780 | 2614 ft | 1 kts | 64° |
| 2026-04-24 01:36 | 32.11839 | -110.93775 | 2614 ft | 1 kts | 72° |
| 2026-04-24 01:36 | 32.11840 | -110.93771 | 2614 ft | 1 kts | 82° |
| 2026-04-24 01:36 | 32.11839 | -110.93765 | 2614 ft | 2 kts | 98° |
| 2026-04-24 01:36 | 32.11825 | -110.93751 | 2614 ft | 4 kts | 156° |
| 2026-04-24 01:37 | 32.11795 | -110.93766 | 2614 ft | 7 kts | 230° |
| 2026-04-24 01:37 | 32.11756 | -110.93802 | 2614 ft | 7 kts | 209° |
| 2026-04-24 01:37 | 32.11707 | -110.93800 | 2615 ft | 8 kts | 150° |
| 2026-04-24 01:37 | 32.11665 | -110.93758 | 2617 ft | 8 kts | 136° |
| 2026-04-24 01:38 | 32.11618 | -110.93702 | 2618 ft | 14 kts | 134° |
| 2026-04-24 01:38 | 32.11524 | -110.93592 | 2622 ft | 24 kts | 135° |
| 2026-04-24 01:38 | 32.11381 | -110.93427 | 2627 ft | 32 kts | 135° |
| 2026-04-24 01:38 | 32.11228 | -110.93243 | 2632 ft | 30 kts | 135° |
| 2026-04-24 01:39 | 32.11084 | -110.93074 | 2635 ft | 28 kts | 135° |
| 2026-04-24 01:39 | 32.10907 | -110.92868 | 2640 ft | 48 kts | 136° |
| 2026-04-24 01:39 | 32.10671 | -110.92590 | 2645 ft | 46 kts | 135° |
| 2026-04-24 01:39 | 32.10483 | -110.92368 | 2650 ft | 27 kts | 134° |
| 2026-04-24 01:40 | 32.10378 | -110.92245 | 2655 ft | 16 kts | 136° |
| 2026-04-24 01:40 | 32.10320 | -110.92247 | 2653 ft | 5 kts | 220° |
| 2026-04-24 01:40 | 32.10314 | -110.92254 | 2656 ft | 1 kts | 223° |
| 2026-04-24 01:40 | 32.10313 | -110.92255 | 2655 ft | 0 kts | 223° |
| 2026-04-24 01:42 | 32.10312 | -110.92256 | 2654 ft | 1 kts | 223° |
| 2026-04-24 01:42 | 32.10302 | -110.92267 | 2650 ft | 6 kts | 224° |
| 2026-04-24 01:42 | 32.10258 | -110.92337 | 2650 ft | 9 kts | 271° |
| 2026-04-24 01:42 | 32.10267 | -110.92360 | 2649 ft | 0 kts | 307° |
| 2026-04-24 01:44 | 32.10268 | -110.92361 | 2649 ft | 0 kts | 307° |
| 2026-04-24 01:44 | 32.10292 | -110.92395 | 2649 ft | 15 kts | 315° |
| 2026-04-24 01:44 | 32.10435 | -110.92560 | 2645 ft | 55 kts | 314° |
| 2026-04-24 01:45 | 32.10863 | -110.93066 | 2635 ft | 117 kts | 314° |
| 2026-04-24 01:45 | 32.11545 | -110.93881 | 2694 ft | 159 kts | 317° |
| 2026-04-24 01:45 | 32.12338 | -110.94837 | 3156 ft | 171 kts | 314° |
| 2026-04-24 01:45 | 32.13096 | -110.95909 | 3965 ft | 162 kts | 322° |
| 2026-04-24 01:46 | 32.13887 | -110.96744 | 4676 ft | 156 kts | 314° |
| 2026-04-24 01:46 | 32.14690 | -110.97635 | 5154 ft | 160 kts | 316° |
| 2026-04-24 01:46 | 32.15490 | -110.98508 | 5774 ft | 157 kts | 314° |
| 2026-04-24 01:46 | 32.16345 | -110.99475 | 5918 ft | 188 kts | 312° |
| 2026-04-24 01:47 | 32.17333 | -111.00656 | 5991 ft | 213 kts | 313° |
| 2026-04-24 01:47 | 32.18424 | -111.01955 | 6162 ft | 232 kts | 313° |
| 2026-04-24 01:47 | 32.19595 | -111.03339 | 6574 ft | 240 kts | 312° |
| 2026-04-24 01:47 | 32.20849 | -111.04674 | 7035 ft | 249 kts | 325° |
| 2026-04-24 01:48 | 32.22585 | -111.05298 | 7251 ft | 278 kts | 358° |
| 2026-04-24 01:48 | 32.24474 | -111.04687 | 7833 ft | 292 kts | 30° |
| 2026-04-24 01:48 | 32.26078 | -111.03170 | 8489 ft | 299 kts | 39° |
| 2026-04-24 01:48 | 32.27636 | -111.01523 | 9177 ft | 302 kts | 39° |
| 2026-04-24 01:49 | 32.29194 | -110.99838 | 9845 ft | 307 kts | 45° |
| 2026-04-24 01:49 | 32.30290 | -110.97637 | 10279 ft | 323 kts | 72° |
| 2026-04-24 01:49 | 32.30654 | -110.94928 | 10447 ft | 345 kts | 85° |
| 2026-04-24 01:49 | 32.30846 | -110.92012 | 10603 ft | 365 kts | 86° |
| 2026-04-24 01:50 | 32.31022 | -110.88960 | 10958 ft | 377 kts | 86° |
| 2026-04-24 01:50 | 32.31207 | -110.85849 | 11466 ft | 383 kts | 86° |
| 2026-04-24 01:50 | 32.31340 | -110.83719 | 11864 ft | 386 kts | 86° |
| 2026-04-24 01:50 | 32.31549 | -110.80537 | 12438 ft | 391 kts | 85° |
| 2026-04-24 01:51 | 32.31771 | -110.77295 | 12921 ft | 399 kts | 85° |
| 2026-04-24 01:51 | 32.31996 | -110.74045 | 13475 ft | 405 kts | 85° |
| 2026-04-24 01:51 | 32.32226 | -110.70721 | 14102 ft | 408 kts | 84° |
| 2026-04-24 01:51 | 32.32466 | -110.67367 | 14736 ft | 411 kts | 85° |
| 2026-04-24 01:52 | 32.32700 | -110.63996 | 15420 ft | 411 kts | 85° |
| 2026-04-24 01:52 | 32.32931 | -110.60615 | 16014 ft | 415 kts | 84° |
| 2026-04-24 01:52 | 32.33131 | -110.57203 | 16619 ft | 418 kts | 88° |
| 2026-04-24 01:52 | 32.33102 | -110.53752 | 17225 ft | 422 kts | 92° |
| 2026-04-24 01:53 | 32.32937 | -110.50277 | 17830 ft | 425 kts | 93° |
| 2026-04-24 01:53 | 32.32728 | -110.46774 | 18381 ft | 429 kts | 93° |
| 2026-04-24 01:53 | 32.32518 | -110.43252 | 18927 ft | 431 kts | 94° |
| 2026-04-24 01:53 | 32.32321 | -110.39695 | 19413 ft | 434 kts | 93° |
| 2026-04-24 01:54 | 32.32139 | -110.36113 | 19900 ft | 438 kts | 93° |
| 2026-04-24 01:54 | 32.31968 | -110.32502 | 20401 ft | 442 kts | 93° |
| 2026-04-24 01:54 | 32.31804 | -110.28863 | 20891 ft | 445 kts | 93° |
| 2026-04-24 01:54 | 32.31642 | -110.25197 | 21359 ft | 449 kts | 93° |
| 2026-04-24 01:55 | 32.31475 | -110.21502 | 21813 ft | 452 kts | 94° |
| 2026-04-24 01:55 | 32.31309 | -110.17775 | 22273 ft | 455 kts | 94° |
| 2026-04-24 01:55 | 32.31143 | -110.14028 | 22717 ft | 459 kts | 94° |
| 2026-04-24 01:55 | 32.30974 | -110.10235 | 23124 ft | 463 kts | 94° |
| 2026-04-24 01:56 | 32.30801 | -110.06416 | 23508 ft | 468 kts | 94° |
| 2026-04-24 01:56 | 32.30625 | -110.02573 | 23871 ft | 470 kts | 94° |
| 2026-04-24 01:56 | 32.30446 | -109.98694 | 24237 ft | 473 kts | 93° |
| 2026-04-24 01:56 | 32.30682 | -109.94813 | 24477 ft | 478 kts | 74° |
| 2026-04-24 01:57 | 32.31997 | -109.91226 | 24798 ft | 474 kts | 53° |
| 2026-04-24 01:57 | 32.34090 | -109.88265 | 25186 ft | 467 kts | 38° |
| 2026-04-24 01:57 | 32.36616 | -109.85876 | 25560 ft | 466 kts | 33° |
| 2026-04-24 01:57 | 32.39210 | -109.83560 | 25878 ft | 469 kts | 32° |
| 2026-04-24 01:58 | 32.41832 | -109.81236 | 26184 ft | 472 kts | 32° |
| 2026-04-24 01:58 | 32.44460 | -109.78897 | 26497 ft | 475 kts | 32° |
| 2026-04-24 01:58 | 32.47105 | -109.76522 | 26777 ft | 479 kts | 32° |
| 2026-04-24 01:58 | 32.49759 | -109.74119 | 27094 ft | 481 kts | 33° |
| 2026-04-24 01:59 | 32.52414 | -109.71699 | 27440 ft | 482 kts | 33° |
| 2026-04-24 01:59 | 32.55077 | -109.69263 | 27758 ft | 485 kts | 33° |
| 2026-04-24 01:59 | 32.57751 | -109.66811 | 28081 ft | 487 kts | 33° |
| 2026-04-24 01:59 | 32.60436 | -109.64347 | 28374 ft | 489 kts | 33° |
| 2026-04-24 02:00 | 32.63131 | -109.61870 | 28672 ft | 491 kts | 33° |
| 2026-04-24 02:00 | 32.65839 | -109.59383 | 28989 ft | 493 kts | 33° |
| 2026-04-24 02:00 | 32.68557 | -109.56883 | 29292 ft | 495 kts | 33° |
| 2026-04-24 02:00 | 32.71282 | -109.54376 | 29575 ft | 497 kts | 33° |
| 2026-04-24 02:01 | 32.74017 | -109.51858 | 29844 ft | 499 kts | 33° |
| 2026-04-24 02:01 | 32.76772 | -109.49320 | 30115 ft | 500 kts | 33° |
| 2026-04-24 02:01 | 32.79517 | -109.46788 | 30401 ft | 501 kts | 33° |
| 2026-04-24 02:01 | 32.82273 | -109.44245 | 30689 ft | 501 kts | 32° |
| 2026-04-24 02:02 | 32.85026 | -109.41702 | 30923 ft | 502 kts | 32° |
| 2026-04-24 02:02 | 32.87788 | -109.39150 | 31151 ft | 503 kts | 32° |
| 2026-04-24 02:02 | 32.90553 | -109.36595 | 31417 ft | 504 kts | 32° |
| 2026-04-24 02:02 | 32.93322 | -109.34038 | 31685 ft | 504 kts | 32° |
| 2026-04-24 02:03 | 32.98816 | -109.28952 | 32593 ft | 495 kts | 32° |
| 2026-04-24 02:03 | 33.01535 | -109.26431 | 32873 ft | 495 kts | 32° |
| 2026-04-24 02:03 | 33.04263 | -109.23901 | 33048 ft | 498 kts | 32° |
| 2026-04-24 02:04 | 33.06997 | -109.21363 | 33255 ft | 499 kts | 32° |
| 2026-04-24 02:04 | 33.09732 | -109.18819 | 33572 ft | 498 kts | 32° |
| 2026-04-24 02:04 | 33.12459 | -109.16279 | 33906 ft | 496 kts | 32° |
| 2026-04-24 02:04 | 33.15175 | -109.13746 | 34121 ft | 497 kts | 32° |
| 2026-04-24 02:05 | 33.17905 | -109.11200 | 34268 ft | 498 kts | 31° |
| 2026-04-24 02:05 | 33.20647 | -109.08643 | 34379 ft | 501 kts | 31° |
| 2026-04-24 02:05 | 33.23392 | -109.06080 | 34585 ft | 501 kts | 31° |
| 2026-04-24 02:05 | 33.26131 | -109.03518 | 34890 ft | 500 kts | 32° |
| 2026-04-24 02:06 | 33.28872 | -109.00952 | 35076 ft | 501 kts | 32° |
| 2026-04-24 02:06 | 33.31617 | -108.98380 | 35266 ft | 501 kts | 32° |
| 2026-04-24 02:06 | 33.34361 | -108.95808 | 35457 ft | 501 kts | 32° |
| 2026-04-24 02:06 | 33.37104 | -108.93236 | 35657 ft | 502 kts | 32° |
| 2026-04-24 02:07 | 33.39816 | -108.90689 | 35813 ft | 502 kts | 31° |
| 2026-04-24 02:07 | 33.42603 | -108.88070 | 35967 ft | 504 kts | 31° |
| 2026-04-24 02:07 | 33.45365 | -108.85474 | 36078 ft | 506 kts | 31° |
| 2026-04-24 02:07 | 33.48135 | -108.82868 | 36196 ft | 508 kts | 31° |
| 2026-04-24 02:08 | 33.50914 | -108.80258 | 36370 ft | 508 kts | 31° |
| 2026-04-24 02:08 | 33.53654 | -108.77677 | 36570 ft | 508 kts | 31° |
| 2026-04-24 02:08 | 33.56421 | -108.75061 | 36819 ft | 506 kts | 31° |
| 2026-04-24 02:08 | 33.59188 | -108.72442 | 36845 ft | 509 kts | 31° |
| 2026-04-24 02:09 | 33.64752 | -108.67180 | 36855 ft | 509 kts | 31° |
| 2026-04-24 02:09 | 33.70288 | -108.61933 | 36847 ft | 505 kts | 31° |
| 2026-04-24 02:10 | 33.75786 | -108.56716 | 36851 ft | 502 kts | 31° |
| 2026-04-24 02:10 | 33.81258 | -108.51519 | 36856 ft | 501 kts | 31° |
| 2026-04-24 02:11 | 33.86717 | -108.46322 | 36847 ft | 497 kts | 31° |
| 2026-04-24 02:11 | 33.89394 | -108.43770 | 36750 ft | 484 kts | 31° |
| 2026-04-24 02:11 | 33.92006 | -108.41276 | 36500 ft | 476 kts | 31° |
| 2026-04-24 02:12 | 33.94631 | -108.38884 | 36097 ft | 471 kts | 28° |
| 2026-04-24 02:12 | 33.97287 | -108.36596 | 35690 ft | 468 kts | 27° |
| 2026-04-24 02:12 | 33.99947 | -108.34357 | 35291 ft | 465 kts | 27° |
| 2026-04-24 02:12 | 34.02590 | -108.32140 | 34932 ft | 462 kts | 28° |
| 2026-04-24 02:13 | 34.05218 | -108.29925 | 34593 ft | 459 kts | 28° |
| 2026-04-24 02:13 | 34.07818 | -108.27719 | 34224 ft | 456 kts | 29° |
| 2026-04-24 02:13 | 34.10398 | -108.25516 | 33870 ft | 453 kts | 29° |
| 2026-04-24 02:13 | 34.12966 | -108.23314 | 33496 ft | 452 kts | 28° |
| 2026-04-24 02:14 | 34.15529 | -108.21114 | 33013 ft | 452 kts | 28° |
| 2026-04-24 02:14 | 34.18076 | -108.18924 | 32647 ft | 448 kts | 28° |
| 2026-04-24 02:14 | 34.20606 | -108.16745 | 32326 ft | 444 kts | 28° |
| 2026-04-24 02:14 | 34.23104 | -108.14590 | 31987 ft | 440 kts | 28° |
| 2026-04-24 02:15 | 34.25593 | -108.12443 | 31638 ft | 437 kts | 28° |
| 2026-04-24 02:15 | 34.28059 | -108.10316 | 31275 ft | 435 kts | 28° |
| 2026-04-24 02:15 | 34.30513 | -108.08197 | 30942 ft | 432 kts | 27° |
| 2026-04-24 02:15 | 34.32954 | -108.06090 | 30620 ft | 429 kts | 27° |
| 2026-04-24 02:16 | 34.35377 | -108.03996 | 30294 ft | 427 kts | 27° |
| 2026-04-24 02:16 | 34.37784 | -108.01915 | 29967 ft | 424 kts | 27° |
| 2026-04-24 02:16 | 34.40177 | -107.99845 | 29598 ft | 421 kts | 27° |
| 2026-04-24 02:16 | 34.42554 | -107.97787 | 29272 ft | 418 kts | 27° |
| 2026-04-24 02:17 | 34.44903 | -107.95750 | 28920 ft | 414 kts | 27° |
| 2026-04-24 02:17 | 34.47237 | -107.93726 | 28553 ft | 411 kts | 27° |
| 2026-04-24 02:17 | 34.49530 | -107.91737 | 28195 ft | 409 kts | 27° |
| 2026-04-24 02:17 | 34.51858 | -107.89715 | 27846 ft | 405 kts | 27° |
| 2026-04-24 02:18 | 34.54142 | -107.87734 | 27497 ft | 402 kts | 27° |
| 2026-04-24 02:18 | 34.56379 | -107.85791 | 27158 ft | 399 kts | 27° |
| 2026-04-24 02:18 | 34.58627 | -107.83833 | 26832 ft | 396 kts | 27° |
| 2026-04-24 02:18 | 34.60857 | -107.81885 | 26502 ft | 394 kts | 29° |
| 2026-04-24 02:19 | 34.62814 | -107.79509 | 26117 ft | 408 kts | 52° |
| 2026-04-24 02:19 | 34.64202 | -107.76485 | 25816 ft | 409 kts | 58° |
| 2026-04-24 02:19 | 34.65494 | -107.73418 | 25476 ft | 407 kts | 59° |
| 2026-04-24 02:19 | 34.66767 | -107.70364 | 25138 ft | 405 kts | 59° |
| 2026-04-24 02:20 | 34.68041 | -107.67328 | 24842 ft | 402 kts | 58° |
| 2026-04-24 02:20 | 34.69314 | -107.64321 | 24558 ft | 398 kts | 58° |
| 2026-04-24 02:20 | 34.70583 | -107.61346 | 24225 ft | 397 kts | 58° |
| 2026-04-24 02:20 | 34.71866 | -107.58355 | 23744 ft | 401 kts | 58° |
| 2026-04-24 02:21 | 34.73160 | -107.55345 | 23265 ft | 403 kts | 58° |
| 2026-04-24 02:21 | 34.74466 | -107.52306 | 22720 ft | 410 kts | 58° |
| 2026-04-24 02:21 | 34.75805 | -107.49174 | 22200 ft | 423 kts | 59° |
| 2026-04-24 02:21 | 34.77173 | -107.45987 | 21644 ft | 426 kts | 59° |
| 2026-04-24 02:22 | 34.78542 | -107.42794 | 21122 ft | 427 kts | 59° |
| 2026-04-24 02:22 | 34.79913 | -107.39591 | 20596 ft | 427 kts | 59° |
| 2026-04-24 02:22 | 34.81282 | -107.36390 | 20083 ft | 426 kts | 60° |
| 2026-04-24 02:22 | 34.82644 | -107.33201 | 19577 ft | 425 kts | 60° |
| 2026-04-24 02:23 | 34.84002 | -107.30015 | 19065 ft | 423 kts | 60° |
| 2026-04-24 02:23 | 34.85349 | -107.26832 | 18576 ft | 422 kts | 61° |
| 2026-04-24 02:23 | 34.86670 | -107.23644 | 18092 ft | 420 kts | 62° |
| 2026-04-24 02:23 | 34.87974 | -107.20473 | 17547 ft | 419 kts | 62° |
| 2026-04-24 02:24 | 34.89273 | -107.17314 | 16991 ft | 417 kts | 62° |
| 2026-04-24 02:24 | 34.90261 | -107.13994 | 16423 ft | 418 kts | 80° |
| 2026-04-24 02:24 | 34.90645 | -107.10522 | 16224 ft | 407 kts | 83° |
| 2026-04-24 02:24 | 34.90997 | -107.07118 | 15711 ft | 406 kts | 83° |
| 2026-04-24 02:25 | 34.91368 | -107.03700 | 15099 ft | 408 kts | 82° |
| 2026-04-24 02:25 | 34.91756 | -107.00272 | 14493 ft | 409 kts | 82° |
| 2026-04-24 02:25 | 34.92157 | -106.96826 | 13770 ft | 414 kts | 82° |
| 2026-04-24 02:25 | 34.92568 | -106.93342 | 12993 ft | 417 kts | 81° |
| 2026-04-24 02:26 | 34.92983 | -106.89832 | 12204 ft | 420 kts | 81° |
| 2026-04-24 02:26 | 34.93402 | -106.86297 | 11540 ft | 421 kts | 81° |
| 2026-04-24 02:26 | 34.93814 | -106.82807 | 10768 ft | 411 kts | 80° |
| 2026-04-24 02:26 | 34.94215 | -106.79412 | 10046 ft | 402 kts | 79° |
| 2026-04-24 02:27 | 34.94607 | -106.76074 | 9318 ft | 393 kts | 79° |
| 2026-04-24 02:27 | 34.94987 | -106.72809 | 8593 ft | 385 kts | 79° |
| 2026-04-24 02:27 | 34.95321 | -106.69645 | 8169 ft | 370 kts | 83° |
| 2026-04-24 02:27 | 34.95450 | -106.66608 | 8051 ft | 347 kts | 86° |
| 2026-04-24 02:28 | 34.95790 | -106.63819 | 8020 ft | 318 kts | 65° |
| 2026-04-24 02:28 | 34.96654 | -106.61478 | 8040 ft | 288 kts | 60° |
| 2026-04-24 02:28 | 34.97466 | -106.59403 | 8026 ft | 255 kts | 59° |
| 2026-04-24 02:28 | 34.98192 | -106.57526 | 7642 ft | 242 kts | 60° |
| 2026-04-24 02:29 | 34.98885 | -106.55719 | 7379 ft | 223 kts | 60° |
| 2026-04-24 02:29 | 34.99496 | -106.54100 | 7264 ft | 197 kts | 60° |
| 2026-04-24 02:29 | 35.00045 | -106.52651 | 7223 ft | 189 kts | 60° |
| 2026-04-24 02:29 | 35.00597 | -106.51202 | 7101 ft | 185 kts | 60° |
| 2026-04-24 02:30 | 35.01396 | -106.50131 | 7031 ft | 163 kts | 12° |
| 2026-04-24 02:30 | 35.02421 | -106.50286 | 6974 ft | 146 kts | 325° |
| 2026-04-24 02:30 | 35.03187 | -106.51053 | 6632 ft | 143 kts | 324° |
| 2026-04-24 02:30 | 35.03894 | -106.51853 | 6260 ft | 134 kts | 298° |
| 2026-04-24 02:31 | 35.04226 | -106.52890 | 6004 ft | 133 kts | 289° |
| 2026-04-24 02:31 | 35.04365 | -106.54085 | 6161 ft | 150 kts | 275° |
| 2026-04-24 02:31 | 35.04451 | -106.55282 | 5836 ft | 136 kts | 276° |
| 2026-04-24 02:31 | 35.04405 | -106.56470 | 5505 ft | 153 kts | 274° |
| 2026-04-24 02:32 | 35.04344 | -106.57781 | 5584 ft | 150 kts | 269° |
| 2026-04-24 02:32 | 35.04416 | -106.58801 | 5319 ft | 46 kts | 238° |
| 2026-04-24 02:32 | 35.04416 | -106.59152 | 5320 ft | 39 kts | 271° |
| 2026-04-24 02:32 | 35.04420 | -106.59489 | 5319 ft | 44 kts | 272° |
| 2026-04-24 02:33 | 35.04502 | -106.59849 | 5311 ft | 42 kts | 309° |
| 2026-04-24 02:33 | 35.04536 | -106.59904 | 5320 ft | 0 kts | 321° |
| 2026-04-24 02:34 | 35.04580 | -106.59924 | 5313 ft | 15 kts | 346° |
| 2026-04-24 02:34 | 35.04647 | -106.60012 | 5320 ft | 22 kts | 279° |
| 2026-04-24 02:34 | 35.04645 | -106.60276 | 5314 ft | 34 kts | 270° |
| 2026-04-24 02:34 | 35.04648 | -106.60554 | 5320 ft | 31 kts | 271° |
| 2026-04-24 02:35 | 35.04647 | -106.60809 | 5320 ft | 29 kts | 268° |
| 2026-04-24 02:35 | 35.04648 | -106.60989 | 5321 ft | 13 kts | 272° |
| 2026-04-24 02:35 | 35.04657 | -106.61059 | 5314 ft | 7 kts | 289° |
| 2026-04-24 02:35 | 35.04667 | -106.61102 | 5319 ft | 0 kts | 275° |
| 2026-04-24 02:36 | 35.04664 | -106.61110 | 5321 ft | 7 kts | 249° |
| 2026-04-24 02:36 | 35.04596 | -106.61218 | 5316 ft | 20 kts | 252° |
| 2026-04-24 02:36 | 35.04584 | -106.61384 | 5312 ft | 19 kts | 271° |
| 2026-04-24 02:37 | 35.04586 | -106.61545 | 5320 ft | 19 kts | 270° |
| 2026-04-24 02:37 | 35.04647 | -106.61645 | 5317 ft | 17 kts | 355° |
| 2026-04-24 02:37 | 35.04686 | -106.61640 | 5317 ft | 0 kts | 12° |
| 2026-04-24 02:41 | 35.04685 | -106.61640 | 5321 ft | 0 kts | 12° |